Time;durP1;ratioP1;P1;durP2;ratioP2;P2;SDS_P1;SDS_P2;PMS_P1;PMS_P2;Temp;Humidity;BMP_temperature;BMP_pressure;BME280_temperature;BME280_humidity;BME280_pressure;Samples;Min_cycle;Max_cycle;Signal;HPM_P1;HPM_P2
2022/06/14 00:04:39;;;;;;;1.20;0.57;;;17.70;52.00;19.80;94396.00;;;;10393810;28;45802;-66
2022/06/14 00:10:00;;;;;;;1.48;0.70;;;17.70;51.90;19.80;94391.00;;;;10392650;28;45464;-66
2022/06/14 00:15:21;;;;;;;1.40;0.70;;;17.70;51.90;19.80;94374.00;;;;10394160;28;45282;-66
2022/06/14 00:20:44;;;;;;;0.90;0.45;;;17.70;52.50;19.80;94378.00;;;;10399138;28;45888;-66
2022/06/14 00:26:07;;;;;;;1.77;0.70;;;17.70;51.90;19.80;94373.00;;;;10400949;28;45108;-66
2022/06/14 00:31:29;;;;;;;2.30;0.60;;;17.70;51.80;19.80;94376.00;;;;10400599;28;45661;-66
2022/06/14 00:36:56;;;;;;;1.17;0.65;;;17.70;51.80;19.80;94374.00;;;;10400132;28;45245;-65
2022/06/14 00:42:22;;;;;;;1.10;0.60;;;17.70;51.80;19.80;94360.00;;;;10399877;28;45190;-65
2022/06/14 00:47:46;;;;;;;1.05;0.60;;;17.70;51.80;19.80;94376.00;;;;10399434;28;45841;-66
2022/06/14 00:53:13;;;;;;;1.15;0.43;;;17.70;51.80;19.80;94364.00;;;;10398651;28;45221;-66
2022/06/14 00:58:41;;;;;;;1.13;0.70;;;17.70;51.80;19.80;94368.00;;;;10395462;28;45701;-65
2022/06/14 01:04:10;;;;;;;0.68;0.30;;;17.70;51.70;19.80;94355.00;;;;10392403;28;45157;-65
2022/06/14 01:09:37;;;;;;;0.70;0.52;;;17.70;51.70;19.80;94367.00;;;;10396568;28;45172;-65
2022/06/14 01:15:06;;;;;;;0.60;0.50;;;17.60;51.70;19.70;94348.00;;;;10397992;28;45701;-67
2022/06/14 01:20:28;;;;;;;0.90;0.40;;;17.60;51.70;19.70;94352.00;;;;10398954;28;45809;-65
2022/06/14 01:25:55;;;;;;;0.73;0.50;;;17.60;51.60;19.80;94352.00;;;;10398119;28;45254;-65
2022/06/14 01:31:17;;;;;;;;;;;17.60;51.70;19.70;94343.00;;;;10398065;28;45203;-65
2022/06/14 01:36:40;;;;;;;1.13;0.50;;;17.60;51.60;19.70;94346.00;;;;10397467;28;45262;-65
2022/06/14 01:42:20;;;;;;;1.17;0.60;;;17.60;51.60;19.70;94340.00;;;;10396530;28;46216;-66
2022/06/14 01:47:48;;;;;;;1.15;0.80;;;17.60;51.60;19.70;94333.00;;;;10395545;28;45674;-65
2022/06/14 01:53:22;;;;;;;0.75;0.55;;;17.60;51.60;19.70;94337.00;;;;10397334;28;45397;-65
2022/06/14 01:58:52;;;;;;;1.08;0.60;;;17.60;51.50;19.70;94325.00;;;;10397094;28;45220;-65
2022/06/14 02:04:40;;;;;;;0.85;0.60;;;17.60;51.50;19.70;94336.00;;;;10397601;28;46009;-65
2022/06/14 02:10:06;;;;;;;0.75;0.60;;;17.60;51.50;19.70;94350.00;;;;10396844;28;45165;-65
2022/06/14 02:15:35;;;;;;;1.08;0.63;;;17.60;51.50;19.70;94344.00;;;;10395115;28;45380;-66
2022/06/14 02:21:03;;;;;;;1.15;0.50;;;17.60;51.50;19.70;94332.00;;;;10396813;28;45895;-64
2022/06/14 02:26:36;;;;;;;0.90;0.50;;;17.60;51.40;19.70;94326.00;;;;10396493;28;45745;-65
2022/06/14 02:32:02;;;;;;;0.73;0.52;;;17.60;51.50;19.70;94314.00;;;;10396115;28;45447;-65
2022/06/14 02:37:30;;;;;;;1.30;0.60;;;17.50;51.30;19.70;94310.00;;;;10396335;28;45177;-66
2022/06/14 02:42:57;;;;;;;0.73;0.60;;;17.50;51.30;19.70;94321.00;;;;10395303;28;45117;-65
2022/06/14 02:48:24;;;;;;;1.10;0.70;;;17.60;51.40;19.70;94307.00;;;;10394655;28;45172;-65
2022/06/14 02:53:50;;;;;;;1.05;0.52;;;17.60;51.30;19.70;94322.00;;;;10394155;28;45164;-65
2022/06/14 02:59:18;;;;;;;0.98;0.70;;;17.50;51.20;19.60;94325.00;;;;10395090;28;45755;-65
2022/06/14 03:04:46;;;;;;;0.80;0.47;;;17.50;51.20;19.60;94312.00;;;;10395763;28;45855;-65
2022/06/14 03:10:08;;;;;;;1.02;0.70;;;17.50;51.20;19.60;94318.00;;;;10395788;28;45161;-65
2022/06/14 03:15:37;;;;;;;1.45;0.60;;;17.50;51.20;19.60;94308.00;;;;10395180;28;45466;-65
2022/06/14 03:21:09;;;;;;;1.27;0.70;;;17.50;51.20;19.60;94327.00;;;;10395548;28;45247;-65
2022/06/14 03:26:37;;;;;;;0.93;0.57;;;17.50;51.20;19.60;94317.00;;;;10393750;28;45257;-66
2022/06/14 03:32:05;;;;;;;0.80;0.50;;;17.50;51.20;19.60;94323.00;;;;10394762;28;45720;-65
2022/06/14 03:37:28;;;;;;;1.00;0.52;;;17.50;51.10;19.60;94323.00;;;;10394863;28;45146;-66
2022/06/14 03:42:49;;;;;;;0.60;0.55;;;17.50;51.10;19.60;94317.00;;;;10393913;28;45411;-66
2022/06/14 03:48:12;;;;;;;0.75;0.50;;;17.50;51.10;19.60;94309.00;;;;10394023;28;45100;-66
2022/06/14 03:54:03;;;;;;;1.13;0.70;;;17.50;51.10;19.60;94308.00;;;;10396725;28;45235;-66
2022/06/14 03:59:41;;;;;;;1.25;0.68;;;17.50;51.00;19.60;94300.00;;;;10400277;28;45235;-66
2022/06/14 04:05:09;;;;;;;1.25;0.70;;;17.50;51.00;19.60;94308.00;;;;10400786;28;45802;-66
2022/06/14 04:10:39;;;;;;;0.80;0.55;;;17.50;51.10;19.60;94303.00;;;;10401302;28;45705;-65
2022/06/14 04:16:10;;;;;;;1.90;0.60;;;17.50;50.90;19.70;94297.00;;;;10401152;28;45239;-66
2022/06/14 04:21:43;;;;;;;1.50;0.60;;;17.60;50.90;19.70;94306.00;;;;10400240;28;46125;-66
2022/06/14 04:27:12;;;;;;;0.77;0.50;;;17.60;50.80;19.70;94298.00;;;;10399859;28;45193;-66
2022/06/14 04:32:42;;;;;;;1.27;0.70;;;17.60;50.70;19.70;94310.00;;;;10400667;28;45328;-66
2022/06/14 04:38:12;;;;;;;1.63;0.65;;;17.60;50.70;19.70;94297.00;;;;10400450;28;45248;-66
2022/06/14 04:43:41;;;;;;;0.43;0.40;;;17.70;50.70;19.70;94293.00;;;;10398107;28;45180;-66
2022/06/14 04:49:09;;;;;;;1.10;0.73;;;17.70;50.70;19.70;94311.00;;;;10400260;28;45144;-66
2022/06/14 04:54:38;;;;;;;1.58;0.70;;;17.70;50.60;19.80;94311.00;;;;10399995;28;45450;-66
2022/06/14 05:00:08;;;;;;;0.85;0.73;;;17.70;50.60;19.80;94312.00;;;;10399864;28;45297;-66
2022/06/14 05:05:38;;;;;;;1.35;0.60;;;17.70;50.50;19.80;94301.00;;;;10398377;28;45116;-66
2022/06/14 05:11:08;;;;;;;0.75;0.52;;;17.70;50.50;19.80;94289.00;;;;10399291;28;45149;-66
2022/06/14 05:16:35;;;;;;;1.38;0.70;;;17.80;50.50;19.80;94291.00;;;;10399170;28;45688;-66
2022/06/14 05:22:01;;;;;;;1.88;0.70;;;17.80;50.50;19.90;94293.00;;;;10399280;28;45117;-66
2022/06/14 05:27:41;;;;;;;1.23;0.60;;;17.80;50.50;19.90;94290.00;;;;10399074;28;45150;-66
2022/06/14 05:33:13;;;;;;;0.90;0.45;;;17.80;50.50;19.90;94297.00;;;;10398862;28;45293;-66
2022/06/14 05:38:43;;;;;;;1.35;0.50;;;17.80;50.50;19.90;94300.00;;;;10398705;28;45196;-67
2022/06/14 05:44:07;;;;;;;2.08;0.50;;;17.80;50.50;19.90;94299.00;;;;10397838;28;45408;-66
2022/06/14 05:49:36;;;;;;;0.88;0.60;;;17.80;50.50;19.90;94302.00;;;;10398320;28;45189;-66
2022/06/14 05:55:05;;;;;;;4.72;0.70;;;17.80;50.50;19.90;94305.00;;;;10398036;28;45134;-67
2022/06/14 06:00:31;;;;;;;2.53;0.60;;;17.90;50.30;19.90;94312.00;;;;10395435;28;45066;-66
2022/06/14 06:06:01;;;;;;;1.27;0.60;;;17.90;50.50;19.90;94302.00;;;;10396874;28;45156;-66
2022/06/14 06:11:27;;;;;;;1.70;0.60;;;17.80;50.50;19.90;94301.00;;;;10396477;28;45864;-66
2022/06/14 06:16:53;;;;;;;2.47;0.60;;;17.90;50.50;19.90;94314.00;;;;10396725;28;45283;-66
2022/06/14 06:22:21;;;;;;;3.15;0.70;;;17.80;50.50;19.90;94300.00;;;;10394815;28;45287;-66
2022/06/14 06:27:49;;;;;;;3.75;0.90;;;17.80;50.50;19.90;94309.00;;;;10396308;28;45202;-66
2022/06/14 06:33:13;;;;;;;1.75;0.52;;;17.80;50.60;19.90;94295.00;;;;10396093;28;45373;-66
2022/06/14 06:38:49;;;;;;;2.42;0.60;;;17.80;50.60;19.90;94309.00;;;;10395649;28;45177;-67
2022/06/14 06:44:18;;;;;;;4.43;0.90;;;17.80;50.60;19.90;94311.00;;;;10394684;28;45781;-66
2022/06/14 06:49:49;;;;;;;2.10;0.63;;;17.80;50.60;19.90;94304.00;;;;10395702;28;45243;-66
2022/06/14 06:55:16;;;;;;;1.42;0.47;;;17.80;50.70;19.90;94300.00;;;;10418289;28;45263;-66
2022/06/14 07:00:40;;;;;;;1.50;0.60;;;17.80;50.70;19.90;94308.00;;;;10422586;28;45213;-66
2022/06/14 07:06:05;;;;;;;3.90;0.90;;;17.80;50.70;19.90;94295.00;;;;10416078;28;45343;-66
2022/06/14 07:11:34;;;;;;;2.38;0.85;;;17.80;50.70;19.90;94306.00;;;;10414494;28;45743;-66
2022/06/14 07:17:02;;;;;;;1.20;0.70;;;17.80;50.80;19.90;94317.00;;;;10425033;28;45160;-66
2022/06/14 07:22:28;;;;;;;1.90;0.80;;;17.80;50.80;19.90;94302.00;;;;10430633;28;45250;-66
2022/06/14 07:28:03;;;;;;;0.60;0.55;;;17.70;50.80;19.80;94314.00;;;;10412493;28;45166;-66
2022/06/14 07:33:27;;;;;;;1.38;0.65;;;17.80;50.80;19.90;94312.00;;;;10394725;28;45208;-66
2022/06/14 07:38:57;;;;;;;1.80;0.60;;;17.80;50.90;19.80;94309.00;;;;10394283;28;45170;-66
2022/06/14 07:44:29;;;;;;;2.35;0.80;;;17.80;51.00;19.80;94304.00;;;;10393928;28;45828;-66
2022/06/14 07:49:57;;;;;;;1.10;0.60;;;17.70;51.00;19.80;94307.00;;;;10394027;28;45475;-66
2022/06/14 07:55:24;;;;;;;0.95;0.60;;;17.70;51.00;19.80;94294.00;;;;10393752;28;45112;-67
2022/06/14 08:01:09;;;;;;;1.65;0.55;;;17.70;51.00;19.80;94301.00;;;;10393704;28;45865;-66
2022/06/14 08:06:35;;;;;;;1.90;0.73;;;17.70;51.10;19.80;94284.00;;;;10393247;28;45114;-66
2022/06/14 08:11:59;;;;;;;0.77;0.52;;;17.70;51.10;19.80;94283.00;;;;10393586;28;45251;-66
2022/06/14 08:17:26;;;;;;;2.20;0.75;;;17.70;51.10;19.80;94284.00;;;;10393693;28;45109;-66
2022/06/14 08:22:53;;;;;;;2.38;0.50;;;17.70;51.10;19.80;94289.00;;;;10393796;28;45729;-66
2022/06/14 08:28:20;;;;;;;1.50;0.60;;;17.70;51.10;19.80;94288.00;;;;10392875;28;45239;-66
2022/06/14 08:33:52;;;;;;;1.77;0.60;;;17.70;51.20;19.80;94301.00;;;;10393092;28;45158;-66
2022/06/14 08:39:19;;;;;;;1.25;0.50;;;17.70;51.20;19.80;94302.00;;;;10395463;28;45245;-66
2022/06/14 08:44:47;;;;;;;0.73;0.50;;;17.70;51.30;19.80;94302.00;;;;10401349;28;45165;-66
2022/06/14 08:50:40;;;;;;;0.90;0.40;;;17.70;51.20;19.80;94292.00;;;;10440021;28;45163;-66
2022/06/14 08:56:39;;;;;;;1.50;0.70;;;17.70;51.30;19.80;94286.00;;;;10437773;28;45180;-66
2022/06/14 09:02:32;;;;;;;0.80;0.60;;;17.70;51.30;19.80;94280.00;;;;10433585;28;45694;-66
2022/06/14 09:08:45;;;;;;;2.22;0.60;;;17.70;51.30;19.80;94280.00;;;;10441417;28;45407;-66
2022/06/14 09:14:41;;;;;;;1.02;0.65;;;17.70;51.30;19.80;94265.00;;;;10440869;28;45184;-66
2022/06/14 09:20:06;;;;;;;1.10;0.57;;;17.70;51.20;19.90;94268.00;;;;10440838;28;45396;-66
2022/06/14 09:25:47;;;;;;;0.40;0.40;;;17.70;51.30;19.90;94267.00;;;;10439637;28;45171;-67
2022/06/14 09:31:39;;;;;;;0.70;0.57;;;17.80;51.20;19.80;94274.00;;;;10439952;28;45149;-66
2022/06/14 09:37:32;;;;;;;1.40;0.50;;;17.70;51.20;19.80;94273.00;;;;10439325;28;45864;-66
2022/06/14 09:43:45;;;;;;;2.20;0.60;;;17.70;51.20;19.80;94277.00;;;;10439831;28;45183;-66
2022/06/14 09:50:00;;;;;;;0.90;0.43;;;17.70;51.20;19.80;94281.00;;;;10421577;28;45145;-67
2022/06/14 09:56:08;;;;;;;1.40;0.63;;;17.70;51.20;19.80;94269.00;;;;10412655;28;45694;-65
2022/06/14 10:01:38;;;;;;;1.15;0.50;;;17.70;51.20;19.80;94269.00;;;;10397039;28;45186;-66
2022/06/14 10:07:30;;;;;;;1.20;0.60;;;17.70;51.20;19.80;94265.00;;;;10396309;28;45118;-65
2022/06/14 10:13:36;;;;;;;3.03;0.70;;;17.70;51.20;19.80;94267.00;;;;10395717;28;45843;-65
2022/06/14 10:19:16;;;;;;;1.65;0.50;;;17.70;51.30;19.80;94248.00;;;;10396355;28;45229;-66
2022/06/14 10:24:44;;;;;;;1.02;0.60;;;17.60;51.20;19.80;94249.00;;;;10421552;28;45786;-65
2022/06/14 10:30:13;;;;;;;0.98;0.52;;;17.70;51.30;19.90;94236.00;;;;10434765;28;45269;-64
2022/06/14 10:35:49;;;;;;;1.58;0.45;;;17.70;51.30;19.90;94237.00;;;;10437337;28;45207;-65
2022/06/14 10:41:21;;;;;;;2.08;0.50;;;17.80;51.30;19.80;94240.00;;;;10436029;28;45133;-65
2022/06/14 10:46:50;;;;;;;2.15;0.55;;;17.70;51.30;19.90;94243.00;;;;10437110;28;45247;-64
2022/06/14 10:52:45;;;;;;;0.93;0.40;;;17.70;51.30;19.80;94229.00;;;;10436814;28;45189;-65
2022/06/14 10:58:26;;;;;;;1.75;0.50;;;17.70;51.20;19.80;94228.00;;;;10436594;28;45138;-65
2022/06/14 11:03:59;;;;;;;0.80;0.60;;;17.70;51.30;19.80;94251.00;;;;10435441;28;45193;-65
2022/06/14 11:09:32;;;;;;;0.90;0.47;;;17.70;51.30;19.90;94235.00;;;;10436086;28;45175;-64
2022/06/14 11:15:02;;;;;;;1.70;0.50;;;17.70;51.20;19.80;94223.00;;;;10436403;28;45117;-64
2022/06/14 11:20:40;;;;;;;3.10;0.60;;;17.70;51.20;19.90;94209.00;;;;10436066;28;45621;-64
2022/06/14 11:26:09;;;;;;;1.05;0.60;;;17.70;51.30;19.80;94211.00;;;;10435939;28;45364;-64
2022/06/14 11:31:43;;;;;;;2.25;0.60;;;17.70;51.40;19.80;94198.00;;;;10435577;28;45115;-65
2022/06/14 11:37:28;;;;;;;2.38;0.60;;;17.70;51.60;19.80;94199.00;;;;10435259;28;45279;-65
2022/06/14 11:43:06;;;;;;;1.33;0.57;;;17.70;51.60;19.80;94199.00;;;;10435037;28;45748;-64
2022/06/14 11:48:35;;;;;;;1.20;0.70;;;17.70;51.70;19.80;94194.00;;;;10435440;28;45280;-64
2022/06/14 11:54:19;;;;;;;1.92;0.68;;;17.70;51.80;19.80;94198.00;;;;10435048;28;45303;-65
2022/06/14 12:00:22;;;;;;;1.88;0.60;;;17.70;51.90;19.80;94182.00;;;;10435057;28;45787;-64
2022/06/14 12:05:49;;;;;;;1.00;0.60;;;17.70;51.90;19.80;94185.00;;;;10434645;28;45100;-65
2022/06/14 12:11:21;;;;;;;2.08;0.57;;;17.70;51.90;19.80;94179.00;;;;10434987;28;45154;-64
2022/06/14 12:16:48;;;;;;;2.15;0.60;;;17.70;51.80;19.80;94184.00;;;;10441120;28;45156;-64
2022/06/14 12:22:28;;;;;;;1.33;0.50;;;17.70;51.90;19.80;94170.00;;;;10442099;28;45772;-66
2022/06/14 12:27:58;;;;;;;0.90;0.60;;;17.70;51.90;19.90;94164.00;;;;10441477;28;45140;-66
2022/06/14 12:33:30;;;;;;;2.33;0.90;;;17.70;51.80;19.90;94164.00;;;;10441385;28;45164;-65
2022/06/14 12:38:56;;;;;;;1.67;0.60;;;17.70;51.90;19.90;94166.00;;;;10441303;28;45229;-65
2022/06/14 12:44:38;;;;;;;0.98;0.60;;;17.70;51.90;19.90;94177.00;;;;10440821;28;45248;-65
2022/06/14 12:50:12;;;;;;;1.15;0.50;;;17.80;51.80;19.90;94171.00;;;;10440738;28;45230;-64
2022/06/14 12:55:40;;;;;;;1.15;0.60;;;17.80;51.70;19.90;94170.00;;;;10440940;28;45105;-65
2022/06/14 13:01:10;;;;;;;0.65;0.43;;;17.80;51.80;19.90;94160.00;;;;10440874;28;45188;-65
2022/06/14 13:07:11;;;;;;;1.33;0.50;;;17.90;51.90;19.90;94151.00;;;;10439785;28;45179;-65
2022/06/14 13:12:46;;;;;;;0.60;0.50;;;17.90;51.80;20.00;94136.00;;;;10440164;28;45755;-64
2022/06/14 13:18:24;;;;;;;1.42;0.60;;;17.90;51.80;20.00;94136.00;;;;10440181;28;45145;-65
2022/06/14 13:23:54;;;;;;;;;;;17.90;51.70;20.00;94139.00;;;;10439847;28;45186;-64
2022/06/14 13:29:31;;;;;;;1.23;0.52;;;17.90;51.70;20.00;94110.00;;;;10439320;28;45172;-65
2022/06/14 13:34:57;;;;;;;;;;;17.90;51.60;20.00;94120.00;;;;10439728;28;45191;-65
2022/06/14 13:40:25;;;;;;;1.02;0.57;;;17.90;51.70;20.00;94123.00;;;;10439079;28;45886;-64
2022/06/14 13:45:51;;;;;;;;;;;18.00;51.70;20.10;94115.00;;;;10439460;28;45749;-66
2022/06/14 13:51:31;;;;;;;1.08;0.50;;;17.90;51.60;20.10;94107.00;;;;10438919;28;45792;-64
2022/06/14 13:57:07;;;;;;;1.50;0.70;;;17.90;51.50;20.10;94120.00;;;;10438891;28;45130;-65
2022/06/14 14:02:37;;;;;;;1.35;0.60;;;18.00;51.60;20.10;94105.00;;;;10439045;28;45429;-64
2022/06/14 14:08:13;;;;;;;0.95;0.60;;;18.00;51.60;20.10;94119.00;;;;10438345;28;45263;-64
2022/06/14 14:13:39;;;;;;;1.40;0.80;;;18.00;51.50;20.10;94092.00;;;;10438119;28;45809;-64
2022/06/14 14:19:20;;;;;;;1.30;0.47;;;18.00;51.50;20.10;94102.00;;;;10437854;28;45270;-66
2022/06/14 14:24:47;;;;;;;0.90;0.57;;;18.00;51.50;20.10;94103.00;;;;10437813;28;45840;-65
2022/06/14 14:30:18;;;;;;;0.68;0.40;;;18.10;51.50;20.20;94101.00;;;;10437839;28;45159;-64
2022/06/14 14:35:44;;;;;;;1.20;0.70;;;18.10;51.40;20.20;94099.00;;;;10437047;28;45112;-65
2022/06/14 14:46:56;;;;;;;1.95;0.50;;;18.10;51.40;20.20;94095.00;;;;10436812;28;45147;-65
2022/06/14 14:52:24;;;;;;;0.70;0.40;;;18.10;51.30;20.20;94091.00;;;;10436837;28;45250;-65
2022/06/14 14:57:51;;;;;;;0.65;0.30;;;18.20;51.30;20.20;94094.00;;;;10436453;28;45785;-65
2022/06/14 15:09:06;;;;;;;1.75;0.50;;;18.20;51.40;20.20;94067.00;;;;10436378;28;45101;-65
2022/06/14 15:14:26;;;;;;;0.82;0.40;;;18.20;51.30;20.20;94067.00;;;;10436128;28;45916;-65
2022/06/14 15:19:55;;;;;;;0.60;0.40;;;18.20;51.30;20.30;94074.00;;;;10435555;28;45195;-65
2022/06/14 15:25:21;;;;;;;0.52;0.40;;;18.20;51.40;20.30;94060.00;;;;10435503;28;45272;-65
2022/06/14 15:30:44;;;;;;;0.93;0.50;;;18.20;51.30;20.30;94052.00;;;;10435197;28;45730;-65
2022/06/14 15:36:11;;;;;;;2.38;0.70;;;18.20;51.50;20.30;94061.00;;;;10435553;28;45188;-66
2022/06/14 15:41:35;;;;;;;1.95;0.60;;;18.20;51.50;20.30;94053.00;;;;10435712;28;45101;-66
2022/06/14 15:46:58;;;;;;;1.65;0.50;;;18.30;51.40;20.30;94053.00;;;;10435250;28;45235;-66
2022/06/14 15:52:23;;;;;;;2.40;0.60;;;18.30;51.50;20.30;94059.00;;;;10442877;28;45689;-66
2022/06/14 15:57:51;;;;;;;1.05;0.50;;;18.30;51.50;20.40;94045.00;;;;10442733;28;45863;-66
2022/06/14 16:03:15;;;;;;;0.77;0.50;;;18.30;51.50;20.40;94037.00;;;;10441885;28;45108;-66
2022/06/14 16:08:48;;;;;;;3.65;0.70;;;18.30;51.40;20.40;94045.00;;;;10442140;28;45220;-65
2022/06/14 16:14:10;;;;;;;1.35;0.52;;;18.40;51.40;20.40;94025.00;;;;10442718;28;45170;-66
2022/06/14 16:19:36;;;;;;;1.42;0.50;;;18.40;51.30;20.50;94032.00;;;;10442034;28;45135;-66
2022/06/14 16:24:59;;;;;;;1.33;0.55;;;18.40;51.40;20.50;94015.00;;;;10441666;28;45256;-66
2022/06/14 16:30:28;;;;;;;1.75;0.57;;;18.50;51.30;20.50;94023.00;;;;10441415;28;45893;-66
2022/06/14 16:35:56;;;;;;;0.35;0.35;;;18.40;51.10;20.50;94032.00;;;;10441153;28;45316;-66
2022/06/14 16:41:38;;;;;;;1.02;0.40;;;18.50;51.10;20.50;94015.00;;;;10440936;28;45389;-66
2022/06/14 16:47:08;;;;;;;1.50;0.68;;;18.50;51.10;20.50;94024.00;;;;10440650;28;45741;-66
2022/06/14 16:52:39;;;;;;;1.10;0.50;;;18.40;51.10;20.50;94025.00;;;;10441610;28;45219;-66
2022/06/14 16:58:07;;;;;;;1.10;0.47;;;18.50;51.10;20.50;94022.00;;;;10440467;28;45215;-66
2022/06/14 17:03:40;;;;;;;1.65;0.60;;;18.40;51.10;20.50;94027.00;;;;10440306;28;45213;-66
2022/06/14 17:09:20;;;;;;;1.45;0.47;;;18.40;51.10;20.50;94012.00;;;;10440417;28;45192;-66
2022/06/14 17:14:51;;;;;;;0.80;0.40;;;18.40;51.10;20.50;94033.00;;;;10439840;28;45260;-66
2022/06/14 17:20:24;;;;;;;1.08;0.50;;;18.40;51.20;20.50;94035.00;;;;10440134;28;46133;-65
2022/06/14 17:31:36;;;;;;;1.83;0.80;;;18.40;51.20;20.50;94024.00;;;;10439452;28;45751;-66
2022/06/14 17:37:07;;;;;;;1.08;0.47;;;18.40;51.20;20.50;94029.00;;;;10439268;28;45097;-66
2022/06/14 17:42:32;;;;;;;2.83;0.70;;;18.50;51.20;20.50;94035.00;;;;10435864;28;45315;-66
2022/06/14 17:48:07;;;;;;;5.38;0.40;;;18.50;51.20;20.50;94023.00;;;;10420687;28;45283;-66
2022/06/14 17:53:48;;;;;;;0.80;0.40;;;18.40;51.20;20.50;94015.00;;;;10439237;28;45186;-66
2022/06/14 17:59:27;;;;;;;1.58;0.60;;;18.40;51.20;20.50;94023.00;;;;10439483;28;45314;-66
2022/06/14 18:04:55;;;;;;;1.00;0.45;;;18.40;51.20;20.50;94012.00;;;;10416189;28;45161;-66
2022/06/14 18:10:28;;;;;;;0.63;0.38;;;18.40;51.30;20.40;94018.00;;;;10391011;28;45216;-67
2022/06/14 18:16:00;;;;;;;0.63;0.40;;;18.40;51.30;20.40;94011.00;;;;10395849;28;45161;-66
2022/06/14 18:27:10;;;;;;;0.70;0.43;;;18.30;51.30;20.40;94015.00;;;;10596515;27;45174;-66
2022/06/14 18:32:35;;;;;;;1.08;0.50;;;18.30;51.40;20.40;94013.00;;;;10553568;27;45188;-66
2022/06/14 18:37:56;;;;;;;0.73;0.40;;;18.30;51.40;20.40;94014.00;;;;10553712;27;45230;-66
2022/06/14 18:43:17;;;;;;;0.65;0.38;;;18.30;51.40;20.40;94016.00;;;;10553723;27;45742;-66
2022/06/14 18:48:46;;;;;;;0.55;0.40;;;18.30;51.50;20.30;94018.00;;;;10552950;27;45155;-65
2022/06/14 18:54:16;;;;;;;0.93;0.40;;;18.30;51.50;20.30;94018.00;;;;10554524;27;45096;-66
2022/06/14 18:59:42;;;;;;;0.57;0.40;;;18.20;51.50;20.30;94001.00;;;;10553104;27;45163;-66
2022/06/14 19:05:51;;;;;;;1.40;0.50;;;18.20;51.50;20.30;94011.00;;;;10553405;27;45197;-66
2022/06/14 19:11:36;;;;;;;0.70;0.15;;;18.20;51.60;20.30;93998.00;;;;10552908;27;45147;-66
2022/06/14 19:17:10;;;;;;;0.70;0.40;;;18.20;51.60;20.20;93997.00;;;;10553097;27;45137;-66
2022/06/14 19:23:02;;;;;;;0.75;0.50;;;18.10;51.60;20.20;94000.00;;;;10553034;27;45227;-66
2022/06/14 19:28:58;;;;;;;0.80;0.30;;;18.10;51.70;20.20;94005.00;;;;10552396;27;45873;-66
2022/06/14 19:34:27;;;;;;;0.52;0.40;;;18.10;51.60;20.20;94002.00;;;;10546108;27;45186;-66
2022/06/14 19:39:56;;;;;;;0.90;0.47;;;18.10;51.60;20.20;94007.00;;;;10523529;28;45124;-66
2022/06/14 19:45:22;;;;;;;0.88;0.50;;;18.10;51.70;20.20;94016.00;;;;10523707;28;45132;-66
2022/06/14 19:50:49;;;;;;;0.80;0.40;;;18.10;51.80;20.20;94022.00;;;;10523562;28;45249;-66
2022/06/14 19:56:12;;;;;;;0.55;0.45;;;18.10;51.80;20.10;94027.00;;;;10523198;28;45190;-65
2022/06/14 20:01:38;;;;;;;1.20;0.50;;;18.00;51.80;20.10;94023.00;;;;10523167;28;45161;-66
2022/06/14 20:07:04;;;;;;;1.45;0.60;;;18.00;51.80;20.10;94029.00;;;;10522527;28;45227;-66
2022/06/14 20:12:33;;;;;;;1.27;0.40;;;18.00;51.80;20.10;94036.00;;;;10523144;28;45083;-66
2022/06/14 20:17:59;;;;;;;0.65;0.50;;;18.00;51.80;20.10;94036.00;;;;10522732;28;45403;-66
2022/06/14 20:23:24;;;;;;;0.63;0.43;;;18.00;51.80;20.10;94042.00;;;;10521949;28;45855;-65
2022/06/14 20:28:48;;;;;;;1.08;0.50;;;18.00;51.80;20.10;94042.00;;;;10522155;28;45142;-65
2022/06/14 20:34:09;;;;;;;1.55;0.55;;;18.00;51.80;20.10;94036.00;;;;10522845;28;45194;-65
2022/06/14 20:39:33;;;;;;;0.82;0.52;;;18.00;51.80;20.10;94027.00;;;;10522308;28;45105;-65
2022/06/14 20:45:02;;;;;;;1.05;0.65;;;18.00;51.80;20.10;94037.00;;;;10516335;28;45146;-66
2022/06/14 20:50:26;;;;;;;0.75;0.50;;;18.00;51.80;20.10;94034.00;;;;10520564;28;45981;-66
2022/06/14 20:55:50;;;;;;;0.90;0.43;;;18.00;51.80;20.10;94044.00;;;;10521920;28;45159;-66
2022/06/14 21:01:14;;;;;;;0.55;0.43;;;18.00;51.80;20.10;94034.00;;;;10521749;28;45172;-66
2022/06/14 21:06:34;;;;;;;0.95;0.50;;;17.90;52.50;20.10;94029.00;;;;10521723;28;45100;-66
2022/06/14 21:11:58;;;;;;;0.73;0.38;;;17.90;51.80;20.00;94016.00;;;;10521224;28;45660;-65
2022/06/14 21:17:22;;;;;;;0.90;0.60;;;17.90;51.80;20.00;94029.00;;;;10521121;28;45750;-66
2022/06/14 21:22:51;;;;;;;0.80;0.55;;;17.90;51.80;20.00;94024.00;;;;10520469;28;45223;-66
2022/06/14 21:28:15;;;;;;;1.42;0.50;;;17.90;51.80;20.00;94013.00;;;;10520308;28;45174;-66
2022/06/14 21:34:04;;;;;;;1.08;0.70;;;17.90;51.90;20.00;94022.00;;;;10520678;28;45174;-65
2022/06/14 21:39:39;;;;;;;0.73;0.60;;;17.90;51.90;20.00;94019.00;;;;10520625;28;45272;-65
2022/06/14 21:45:00;;;;;;;1.17;0.55;;;17.90;51.80;20.00;94024.00;;;;10472221;22;45211;-60
2022/06/14 21:50:24;;;;;;;0.57;0.50;;;17.90;51.80;20.00;94020.00;;;;10436498;28;45778;-60
2022/06/14 21:55:53;;;;;;;0.80;0.50;;;17.90;51.80;20.00;94020.00;;;;10436043;28;45211;-60
2022/06/14 22:01:22;;;;;;;0.60;0.50;;;17.90;51.80;20.00;94027.00;;;;10435841;28;45156;-60
2022/06/14 22:06:44;;;;;;;0.80;0.47;;;17.80;51.80;20.00;94041.00;;;;10435900;28;45898;-61
2022/06/14 22:12:06;;;;;;;0.75;0.60;;;17.90;51.80;20.00;94037.00;;;;10435819;28;45270;-59
2022/06/14 22:17:27;;;;;;;1.15;0.70;;;17.90;51.80;20.00;94041.00;;;;10435411;28;45212;-61
2022/06/14 22:22:49;;;;;;;0.80;0.50;;;17.90;51.80;19.90;94042.00;;;;10434964;28;45686;-61
2022/06/14 22:28:10;;;;;;;0.80;0.50;;;17.80;51.80;20.00;94032.00;;;;10435340;28;45854;-60
2022/06/14 22:33:31;;;;;;;0.57;0.50;;;17.90;51.80;20.00;94039.00;;;;10435039;28;45669;-61
2022/06/14 22:38:54;;;;;;;1.30;0.80;;;17.90;51.80;19.90;94036.00;;;;10434784;28;45287;-61
2022/06/14 22:44:16;;;;;;;0.95;0.70;;;17.90;51.80;19.90;94026.00;;;;10434721;28;45854;-59
2022/06/14 22:49:36;;;;;;;0.77;0.50;;;17.90;51.70;19.90;94036.00;;;;10434570;28;45203;-60
2022/06/14 22:54:58;;;;;;;1.02;0.55;;;17.90;51.70;19.90;94035.00;;;;10434651;28;45226;-60
2022/06/14 23:00:19;;;;;;;1.25;0.70;;;17.80;51.70;19.90;94036.00;;;;10434562;28;45127;-60
2022/06/14 23:05:40;;;;;;;0.75;0.60;;;17.80;51.70;19.90;94030.00;;;;10434063;28;45878;-59
2022/06/14 23:11:04;;;;;;;1.25;0.80;;;17.80;51.70;19.90;94026.00;;;;10437738;28;45215;-61
2022/06/14 23:16:24;;;;;;;0.98;0.68;;;17.80;51.70;19.90;94032.00;;;;10441507;28;45243;-60
2022/06/14 23:21:45;;;;;;;1.27;0.68;;;17.80;51.60;19.90;94046.00;;;;10441095;28;45259;-61
2022/06/14 23:27:07;;;;;;;0.88;0.55;;;17.80;51.60;19.90;94032.00;;;;10440919;28;45823;-60
2022/06/14 23:32:28;;;;;;;0.85;0.55;;;17.80;51.70;19.90;94032.00;;;;10440710;28;45230;-59
2022/06/14 23:37:48;;;;;;;0.85;0.50;;;17.80;51.60;19.90;94035.00;;;;10440621;28;45188;-60
2022/06/14 23:43:11;;;;;;;0.90;0.50;;;17.80;51.60;19.90;94031.00;;;;10440187;28;45203;-59
2022/06/14 23:48:32;;;;;;;0.60;0.50;;;17.80;51.60;19.90;94011.00;;;;10440529;28;45121;-61
2022/06/14 23:53:53;;;;;;;0.80;0.60;;;17.80;51.50;19.90;94013.00;;;;10439603;28;45134;-59
2022/06/14 23:59:15;;;;;;;0.98;0.68;;;17.80;51.60;19.80;94015.00;;;;10439815;28;45173;-60
